TimeAKDT,TemperatureF,Dew PointF,Humidity,Sea Level PressureIn,VisibilityMPH,Wind Direction,Wind SpeedMPH,Gust SpeedMPH,PrecipitationIn,Events,Conditions,WindDirDegrees,DateUTC
12:53 AM,37.9,32.0,79,29.85,10.0,ESE,16.1,39.1,0.00,Rain,Light Rain,110,2013-04-18 08:53:00
1:31 AM,37.4,32.0,81,29.84,6.0,SE,12.7,-,0.02,Rain,Heavy Rain,130,2013-04-18 09:31:00
1:53 AM,37.9,32.0,79,29.85,10.0,SE,8.1,18.4,0.03,,Overcast,130,2013-04-18 09:53:00
2:53 AM,39.0,32.0,76,29.84,10.0,SSE,23.0,28.8,N/A,,Overcast,150,2013-04-18 10:53:00
3:53 AM,37.9,32.0,79,29.84,10.0,SSE,21.9,26.5,0.00,,Overcast,150,2013-04-18 11:53:00
4:53 AM,37.9,33.1,83,29.84,10.0,SE,23.0,27.6,0.01,,Overcast,140,2013-04-18 12:53:00
5:53 AM,39.0,33.1,79,29.85,10.0,SSE,19.6,-,N/A,,Overcast,160,2013-04-18 13:53:00
6:53 AM,37.9,33.1,83,29.86,10.0,SSE,19.6,-,0.00,,Overcast,160,2013-04-18 14:53:00
7:53 AM,37.9,33.1,83,29.88,10.0,SSE,21.9,27.6,0.00,,Overcast,150,2013-04-18 15:53:00
8:53 AM,37.9,33.1,83,29.89,10.0,SSE,19.6,26.5,N/A,,Overcast,150,2013-04-18 16:53:00
9:53 AM,39.0,34.0,82,29.91,10.0,SSE,18.4,26.5,N/A,,Mostly Cloudy,160,2013-04-18 17:53:00
10:53 AM,42.1,35.1,76,29.94,10.0,SSE,19.6,28.8,N/A,,Mostly Cloudy,160,2013-04-18 18:53:00
11:53 AM,43.0,35.1,74,29.95,10.0,SSE,23.0,29.9,N/A,,Overcast,160,2013-04-18 19:53:00
12:53 PM,43.0,36.0,76,29.97,10.0,SSE,25.3,-,N/A,,Mostly Cloudy,160,2013-04-18 20:53:00
1:53 PM,44.1,36.0,73,29.98,10.0,SSE,21.9,-,N/A,,Mostly Cloudy,160,2013-04-18 21:53:00
2:53 PM,44.1,36.0,73,30.00,10.0,South,20.7,-,N/A,,Overcast,170,2013-04-18 22:53:00
3:53 PM,44.1,36.0,73,30.01,10.0,South,24.2,-,N/A,,Mostly Cloudy,170,2013-04-18 23:53:00
4:53 PM,45.0,37.0,74,30.02,10.0,SSE,19.6,-,N/A,,Mostly Cloudy,160,2013-04-19 00:53:00
5:53 PM,44.1,36.0,73,30.03,10.0,South,17.3,-,N/A,,Overcast,170,2013-04-19 01:53:00
6:53 PM,43.0,36.0,76,30.04,10.0,SSE,17.3,-,N/A,,Overcast,160,2013-04-19 02:53:00
7:53 PM,41.0,35.1,79,30.06,10.0,SSE,13.8,-,N/A,,Overcast,160,2013-04-19 03:53:00
8:53 PM,39.9,35.1,83,30.07,10.0,SSE,13.8,-,N/A,,Overcast,160,2013-04-19 04:53:00
9:53 PM,39.0,34.0,82,30.09,10.0,SSE,12.7,-,N/A,,Overcast,160,2013-04-19 05:53:00
10:53 PM,37.9,34.0,86,30.11,10.0,South,12.7,-,0.00,,Overcast,170,2013-04-19 06:53:00
11:26 PM,37.4,33.8,87,30.11,10.0,South,11.5,-,N/A,,Overcast,170,2013-04-19 07:26:00
11:34 PM,37.4,33.8,87,30.12,10.0,South,10.4,-,N/A,,Overcast,170,2013-04-19 07:34:00
11:53 PM,37.9,34.0,86,30.12,10.0,SSE,11.5,-,N/A,,Overcast,160,2013-04-19 07:53:00